Terminal Aerodrome Forecast
Issued by NWS

Home | Current Version | Previous Version | Text Only | Print | Product List | Glossary On
Versions: 1 2 3 4 5 6 7 8 9 10 11 12
000
FTUS45 KVEF 272320
TAFEED
TAF
KEED 272320Z 2800/2824 20012KT P6SM SKC
     FM280300 24007KT P6SM SKC
     FM281000 VRB05KT P6SM SKC
     FM282000 18009KT P6SM SKC=

USA.gov is the U.S. government's official web portal to all federal, state and local government web resources and services.